ZGGGVVCI

Guest
Details From ZGGG - BAIYUN INTL
To VVCI - HAIPHONG CATBI
Flight Number -
Tags generated
Created
Modified
Stats Distance 456 nm / 845 km
Max Altitude 34,000 ft / 10,363 m
Waypoints 6
Social Downloads 0
Likes 0
Share VATSIM

Download

Looking for another format? Having issues loading an existing format? Contact us
Advertisement - Login to hide

Notes

Basic altitude profile: - Ascent Rate: 2500ft/min - Ascent Speed: 250kts - Cruise Altitude: 35000ft - Cruise Speed: 420kts - Descent Rate: 1500ft/min - Descent Speed: 250kts Options: - Use NATs: yes - Use PACOTS: yes - Use low airways: no - Use high airways: yes

Route

ZGGG GYA R474 NL VVCI

ID Type Via Altitude Latitude Longitude Leg Dist Tot Dist Heading (true) Name
O ZGGG APT - 0 ft / 0 m 23.39244˚ 113.29879˚ - 0 nm - BAIYUN INTL
GYA VOR - 16,400 ft / 4,999 m 23.07000˚ 112.48667˚ 48 nm 48 nm 247° / 246° GAOYAO VOR-DME
OSIKA FIX R474 (AWY-HI) 34,000 ft / 10,363 m 22.85333˚ 110.54000˚ 108 nm 157 nm 263° / 263° -
NNG VOR R474 (AWY-HI) 34,000 ft / 10,363 m 22.62500˚ 108.19667˚ 130 nm 287 nm 264° / 264° NANNING VOR-DME
NL NDB R474 (AWY-HI) 18,900 ft / 5,761 m 22.36667˚ 106.86667˚ 75 nm 363 nm 258° / 258° LONGZHOU NDB
O VVCI APT - 0 ft / 0 m 20.81939˚ 106.72499˚ 93 nm 456 nm 185° / 185° HAIPHONG CATBI

Altitude Profile

Advertisement - Login to hide

Weather


0- 5 10 15 20 25 30 35+ Temperature / ° C

Clouds and Precipitation
Forecast for 2017-12-15 12:00 UTC. Updated an hour ago

Ground ~20,000 ft ~40,000 ft Winds

ZGGG

Details ICAO ZGGG (CAN)
Name BAIYUN INTL
Region China
Timezone Asia/Shanghai (UTC+8.0)
Stats Elevation 50 ft / 15 m (AMSL)
Location 23.392439° 113.298788°
Runways 2
Magnetic Variation 2.904° W

METAR

ZGGG 151230Z 35006MPS 9999 OVC026 14/10 Q1022 NOSIG

Decode

TAF

Not found

Departure Runways

ID Width Length Bearing (true) Bearing (mag) Surface Threshold Offset Overrun Length
02L 148 ft / 45 m 11,891 ft / 3,624 m 13.86° 16.76° Concrete 0 ft / 0 m 375 ft / 114 m
02R 197 ft / 60 m 12,554 ft / 3,827 m 13.90° 16.80° Concrete 0 ft / 0 m 380 ft / 116 m
20L 197 ft / 60 m 12,554 ft / 3,827 m 193.90° 196.80° Concrete 670 ft / 204 m 375 ft / 114 m
20R 148 ft / 45 m 11,891 ft / 3,624 m 193.86° 196.76° Concrete 0 ft / 0 m 385 ft / 117 m

VVCI

Details ICAO VVCI (HPH)
Name HAIPHONG CATBI
Region Vietnam
Timezone Asia/Ho_Chi_Minh (UTC+7.0)
Stats Elevation 6 ft / 2 m (AMSL)
Location 20.819386° 106.724990°
Runways 1
Magnetic Variation 1.554° W

METAR

VVCI 151230Z 01006KT 9999 OVC024 17/13 Q1019 NOSIG

Decode

TAF

TAF VVCI 151100Z 1512/1612 02008KT 9999 SCT020 BKN040= TAF VVCR 151100Z 1512/1612 06015KT 9999 SCT017 SCT050

Decode

Destination Runways

ID Width Length Bearing (true) Bearing (mag) Surface Threshold Offset Overrun Length
07 164 ft / 50 m 7,879 ft / 2,402 m 72.18° 73.73° Asphalt 0 ft / 0 m 0 ft / 0 m
25 164 ft / 50 m 7,879 ft / 2,402 m 252.19° 253.74° Asphalt 0 ft / 0 m 0 ft / 0 m